• Join FlightAware (Why Join?)
  • Login
  • US Flag 
06:22AM EST


 

Airport Tracker/Info


-or-


 

Live Flight TrackerFlight Track Log ✈ GJS6221 ✈ 02-May-2013 ✈ KBTV - KLGA

Flight Track Log - Related Links

Times and Time Zones

All times are in EDT time to prevent confusion due to time zone crossing. See the GJS6221 flight status page for this flight to view local times or setup timezone preferences in your user account.

Time Position Orientation Groundspeed Altitude Reporting Facility
EDT Latitude Longitude Course Direction KTS MPH feet Rate Location/Type
04:00PM 44.4917 -73.2578 267° West 176 203 4,500  Level Boston Center
04:01PM 44.4228 -73.2772 191° South 198 228 7,100 2,760 Climbing Boston Center
04:02PM 44.3456 -73.3022 193° South 259 298 10,100 2,400 Climbing Boston Center
04:03PM 44.2433 -73.3325 192° South 324 373 12,000 2,100 Climbing Boston Center
04:04PM 44.1450 -73.3658 194° South 364 419 14,300 2,280 Climbing Boston Center
04:05PM 43.8735 -73.3766 195° South  Level FlightAware Approximate
04:05PM 44.0386 -73.3989 193° South 385 443 16,600  Level Boston Center
04:06PM 43.9300 -73.4347 193° South 395 455 18,400 1,800 Climbing Boston Center
04:07PM 43.8169 -73.4703 193° South 405 466 20,300 1,740 Climbing Boston Center
04:08PM 43.7000 -73.5083 193° South 414 476 21,900 840 Climbing Boston Center
04:09PM 43.5789 -73.5464 193° South 434 499 22,000  Climbing Boston Center
04:10PM 43.4575 -73.5814 192° South 439 505 22,000  Level Boston Center
04:11PM 43.3383 -73.6192 193° South 444 511 22,000  Level Boston Center
04:12PM 43.2192 -73.6594 194° South 444 511 22,000  Level Boston Center
04:13PM 43.1000 -73.6969 193° South 444 511 22,000  Level Boston Center
04:14PM 42.9808 -73.7369 194° South 444 511 22,000 -60 Level Boston Center
04:16PM 42.8636 -73.7686 191° South 444 511 21,900  Descending Boston Center
04:17PM 42.7194 -73.7994 189° South 433 498 22,000 -120 Climbing Boston Center
04:18PM 42.5989 -73.7797 173° South 426 490 21,700 -600 Descending Boston Center
04:19PM 42.4803 -73.7547 171° South 431 496 20,900 -900 Descending Boston Center
04:20PM 42.3578 -73.7297 171° South 438 504 20,000 -960 Descending Boston Center
04:21PM 42.2411 -73.7047 171° South 433 498 19,000 -1,020 Descending Boston Center
04:22PM 42.1267 -73.6886 174° South 428 493 18,000 -540 Descending Boston Center
04:23PM 42.0139 -73.7169 191° South 414 476 18,000  Level Boston Center
04:24PM 41.9178 -73.7458 193° South 407 468 18,000 -1,020 Level Boston Center
04:25PM 41.7967 -73.7683 188° South 407 468 16,000 -1,860 Descending Boston Center
04:26PM 41.7028 -73.7747 183° South 394 453 14,300 -1,740 Descending Boston Center
04:27PM 41.5833 -73.7833 183° South 350 403 12,500 -1,620 Descending New York TRACON
04:28PM 41.5000 -73.7833 180° South 316 364 11,200 -1,320 Descending New York TRACON
04:29PM 41.4167 -73.8000 189° South 296 341 10,000 -1,260 Descending New York TRACON
04:30PM 41.3333 -73.8000 180° South 289 333 8,700 -960 Descending New York TRACON
04:31PM 41.2833 -73.7333 135° Southeast 278 320 8,100 -540 Descending New York TRACON
04:31PM 41.2167 -73.6833 151° Southeast 276 318 7,700 -840 Descending New York TRACON
04:32PM 41.1500 -73.6667 169° South 279 321 6,600 -1,140 Descending New York TRACON
04:33PM 41.0667 -73.6667 180° South 271 312 5,500 -1,200 Descending New York TRACON
04:35PM 41.0000 -73.7000 201° Southwest 254 292 4,100 -900 Descending New York TRACON
04:35PM 40.9500 -73.7333 207° Southwest 209 241 3,800 -660 Descending New York TRACON
04:37PM 40.9000 -73.7667 207° Southwest 190 219 2,800 -1,020 Descending New York TRACON
04:37PM 40.8667 -73.8167 229° Southwest 189 217 1,800 -1,020 Descending New York TRACON
04:38PM 40.8167 -73.8333 194° South 143 165 900 -900 Descending New York TRACON